Time;durP1;ratioP1;P1;durP2;ratioP2;P2;SDS_P1;SDS_P2;PMS_P1;PMS_P2;Temp;Humidity;BMP_temperature;BMP_pressure;BME280_temperature;BME280_humidity;BME280_pressure;Samples;Min_cycle;Max_cycle;Signal;HPM_P1;HPM_P2
2022/05/28 00:00:35;;;;;;;24.38;5.53;;;22.70;95.20;;;;;;5032281;28;20533;-70
2022/05/28 00:03:40;;;;;;;26.20;5.28;;;22.70;95.30;;;;;;5032766;28;20060;-70
2022/05/28 00:06:45;;;;;;;22.73;4.90;;;22.70;94.60;;;;;;5012883;28;20397;-70
2022/05/28 00:09:49;;;;;;;19.02;4.57;;;22.60;94.30;;;;;;5028711;28;20424;-70
2022/05/28 00:12:56;;;;;;;23.00;4.50;;;22.50;93.90;;;;;;5033190;28;20044;-71
2022/05/28 00:16:00;;;;;;;20.02;5.07;;;22.40;94.30;;;;;;5032774;28;20392;-70
2022/05/28 00:19:05;;;;;;;23.23;5.55;;;22.30;93.90;;;;;;5031819;28;20044;-70
2022/05/28 00:22:09;;;;;;;30.95;5.90;;;22.30;94.00;;;;;;5031978;28;20503;-70
2022/05/28 00:25:16;;;;;;;17.60;4.55;;;22.30;94.20;;;;;;5032300;28;20048;-70
2022/05/28 00:28:21;;;;;;;16.90;5.38;;;22.30;94.30;;;;;;5030715;28;20049;-70
2022/05/28 00:31:25;;;;;;;22.00;5.57;;;22.30;94.40;;;;;;5031384;28;20527;-71
2022/05/28 00:34:29;;;;;;;23.75;5.50;;;22.20;94.60;;;;;;5032575;28;20041;-71
2022/05/28 00:37:33;;;;;;;27.58;5.90;;;22.20;94.30;;;;;;5028428;28;20045;-71
2022/05/28 00:40:37;;;;;;;18.80;4.32;;;22.20;94.10;;;;;;5031295;28;20045;-71
2022/05/28 00:43:44;;;;;;;15.50;4.55;;;22.20;94.10;;;;;;5031605;28;20048;-71
2022/05/28 00:46:51;;;;;;;22.67;4.50;;;22.20;94.10;;;;;;5030463;28;20052;-71
2022/05/28 00:49:55;;;;;;;16.42;4.10;;;22.10;93.80;;;;;;5031222;28;20045;-71
2022/05/28 00:53:01;;;;;;;23.20;5.05;;;22.20;93.60;;;;;;5031388;28;20052;-71
2022/05/28 00:56:06;;;;;;;20.92;4.40;;;22.20;93.00;;;;;;5031747;28;20045;-71
2022/05/28 00:59:11;;;;;;;19.50;5.32;;;22.30;92.80;;;;;;5031326;28;20461;-71
2022/05/28 01:02:39;;;;;;;17.95;5.32;;;22.30;92.90;;;;;;5031154;28;20056;-71
2022/05/28 01:06:00;;;;;;;17.25;4.78;;;22.40;93.10;;;;;;5011987;28;20515;-71
2022/05/28 01:09:12;;;;;;;19.38;4.85;;;22.50;93.30;;;;;;5029254;28;20522;-71
2022/05/28 01:12:44;;;;;;;22.77;5.65;;;22.40;93.60;;;;;;5030867;28;20048;-71
2022/05/28 01:16:08;;;;;;;26.02;5.93;;;22.50;93.80;;;;;;5031090;28;20048;-71
2022/05/28 01:19:50;;;;;;;21.73;5.05;;;22.50;94.10;;;;;;5031400;28;20428;-71
2022/05/28 01:23:19;;;;;;;23.80;5.55;;;22.40;93.00;;;;;;5011624;28;20045;-71
2022/05/28 01:26:44;;;;;;;22.20;5.10;;;22.30;92.10;;;;;;5030570;28;20048;-71
2022/05/28 01:29:51;;;;;;;25.92;4.93;;;22.40;91.90;;;;;;5030779;28;20044;-71
2022/05/28 01:32:58;;;;;;;20.65;4.88;;;22.40;91.60;;;;;;5031415;28;20062;-71
2022/05/28 01:36:06;;;;;;;26.85;4.97;;;22.30;91.40;;;;;;5030688;28;20049;-71
2022/05/28 01:39:13;;;;;;;20.42;4.20;;;22.30;91.50;;;;;;5030572;28;20072;-71
2022/05/28 01:42:18;;;;;;;16.35;4.28;;;22.30;91.60;;;;;;5030868;28;20595;-71
2022/05/28 01:45:26;;;;;;;20.70;4.80;;;22.30;91.60;;;;;;5011156;28;20393;-71
2022/05/28 01:48:31;;;;;;;17.65;4.45;;;22.30;91.60;;;;;;5028063;28;20048;-71
2022/05/28 01:51:42;;;;;;;19.67;5.18;;;22.30;91.90;;;;;;5030478;28;20044;-71
2022/05/28 01:54:48;;;;;;;25.05;5.63;;;22.30;92.10;;;;;;5031029;28;20487;-71
2022/05/28 01:57:53;;;;;;;28.38;6.15;;;22.30;92.50;;;;;;5030479;28;20044;-70
2022/05/28 02:00:59;;;;;;;25.63;7.00;;;22.30;92.80;;;;;;5030468;28;20052;-71
2022/05/28 02:04:04;;;;;;;23.70;4.90;;;22.10;93.50;;;;;;5030964;28;20052;-71
2022/05/28 02:07:08;;;;;;;25.70;4.70;;;21.80;93.80;;;;;;5026174;28;20052;-70
2022/05/28 02:10:17;;;;;;;22.83;5.07;;;21.60;94.10;;;;;;5029590;28;20052;-70
2022/05/28 02:13:30;;;;;;;20.83;4.90;;;21.30;95.20;;;;;;5032062;28;20052;-70
2022/05/28 02:16:50;;;;;;;25.30;6.38;;;21.10;95.80;;;;;;5036638;28;20052;-70
2022/05/28 02:20:43;;;;;;;21.92;4.80;;;20.90;96.10;;;;;;5036624;28;20048;-71
2022/05/28 02:24:31;;;;;;;24.58;5.82;;;20.80;96.60;;;;;;5037528;28;20052;-71
2022/05/28 02:27:39;;;;;;;27.60;5.65;;;20.70;96.90;;;;;;5036288;28;20048;-70
2022/05/28 02:30:48;;;;;;;19.75;4.82;;;20.60;97.20;;;;;;5036505;28;20048;-70
2022/05/28 02:33:53;;;;;;;22.67;5.13;;;20.60;97.30;;;;;;5036447;28;20056;-70
2022/05/28 02:36:57;;;;;;;19.50;4.50;;;20.60;97.50;;;;;;5036062;28;20037;-71
2022/05/28 02:40:02;;;;;;;20.20;5.30;;;20.60;97.90;;;;;;5036891;28;20499;-70
2022/05/28 02:43:06;;;;;;;21.95;4.70;;;20.60;97.90;;;;;;5033893;28;20056;-70
2022/05/28 02:46:11;;;;;;;16.33;4.93;;;20.50;98.20;;;;;;5035865;28;20495;-70
2022/05/28 02:49:15;;;;;;;26.88;6.05;;;20.50;98.50;;;;;;5036808;28;20044;-70
2022/05/28 02:52:18;;;;;;;20.00;5.20;;;20.50;98.90;;;;;;5036182;28;20423;-70
2022/05/28 02:55:23;;;;;;;23.48;6.30;;;20.40;99.20;;;;;;5036136;28;20053;-70
2022/05/28 02:58:27;;;;;;;21.30;5.38;;;20.30;99.90;;;;;;5036818;28;20052;-70
2022/05/28 03:01:33;;;;;;;23.25;5.57;;;20.20;99.90;;;;;;5036785;28;20072;-70
2022/05/28 03:04:37;;;;;;;22.83;5.78;;;20.10;99.90;;;;;;5035833;28;20494;-70
2022/05/28 03:07:42;;;;;;;27.23;6.10;;;20.20;99.90;;;;;;5036283;28;20064;-70
2022/05/28 03:10:47;;;;;;;22.00;5.43;;;20.30;99.90;;;;;;5017001;28;20045;-70
2022/05/28 03:13:51;;;;;;;20.70;6.60;;;20.30;99.90;;;;;;5034808;28;20416;-70
2022/05/28 03:16:55;;;;;;;22.30;5.20;;;20.30;99.90;;;;;;5035845;28;20056;-70
2022/05/28 03:20:01;;;;;;;21.75;5.75;;;20.40;99.90;;;;;;5036957;28;20036;-70
2022/05/28 03:23:05;;;;;;;29.85;6.45;;;20.40;99.90;;;;;;5036084;28;20056;-70
2022/05/28 03:26:13;;;;;;;21.77;5.35;;;20.40;99.90;;;;;;5032527;28;20056;-70
2022/05/28 03:29:17;;;;;;;24.25;5.82;;;20.30;99.90;;;;;;5033046;28;20052;-71
2022/05/28 03:32:21;;;;;;;16.45;5.55;;;20.20;99.90;;;;;;5030024;28;20500;-70
2022/05/28 03:35:25;;;;;;;17.60;5.45;;;20.10;99.90;;;;;;5032445;28;20036;-70
2022/05/28 03:38:29;;;;;;;31.48;6.70;;;20.00;99.90;;;;;;5032820;28;20049;-70
2022/05/28 03:41:33;;;;;;;24.60;6.30;;;19.90;99.90;;;;;;5032934;28;20392;-70
2022/05/28 03:44:37;;;;;;;26.15;6.28;;;19.80;99.90;;;;;;5032284;28;20064;-70
2022/05/28 03:47:41;;;;;;;22.67;6.47;;;19.80;99.90;;;;;;5030471;28;20052;-71
2022/05/28 03:50:45;;;;;;;22.70;5.90;;;19.70;99.90;;;;;;5032205;28;20052;-70
2022/05/28 03:53:50;;;;;;;25.30;7.20;;;19.70;99.90;;;;;;5031555;28;20045;-70
2022/05/28 03:57:07;;;;;;;32.05;6.82;;;19.80;99.90;;;;;;5031476;28;20052;-70
2022/05/28 04:00:12;;;;;;;24.48;6.80;;;19.80;99.90;;;;;;5012517;28;20041;-71
2022/05/28 04:03:16;;;;;;;21.00;6.47;;;19.90;99.90;;;;;;5025253;28;20421;-71
2022/05/28 04:06:20;;;;;;;30.05;6.40;;;19.90;99.90;;;;;;5031108;28;20040;-71
2022/05/28 04:09:24;;;;;;;23.77;5.95;;;20.10;99.90;;;;;;5032202;28;20384;-70
2022/05/28 04:12:28;;;;;;;34.67;6.70;;;20.10;99.90;;;;;;5031496;28;20061;-71
2022/05/28 04:15:34;;;;;;;18.48;6.22;;;20.30;99.90;;;;;;5030465;28;20048;-70
2022/05/28 04:18:38;;;;;;;17.08;5.85;;;20.30;99.90;;;;;;5032008;28;20041;-71
2022/05/28 04:21:42;;;;;;;31.05;6.50;;;20.40;99.90;;;;;;5029033;28;20530;-70
2022/05/28 04:24:47;;;;;;;30.02;6.85;;;20.40;99.90;;;;;;5030612;28;20045;-71
2022/05/28 04:27:51;;;;;;;28.98;7.53;;;20.40;99.90;;;;;;5031175;28;20056;-71
2022/05/28 04:30:56;;;;;;;22.60;6.05;;;20.50;99.90;;;;;;5030145;28;20048;-70
2022/05/28 04:34:00;;;;;;;35.28;6.95;;;20.60;99.90;;;;;;5030758;28;20041;-71
2022/05/28 04:37:04;;;;;;;27.60;7.13;;;20.60;99.90;;;;;;5029502;28;20044;-71
2022/05/28 04:40:09;;;;;;;24.45;6.28;;;20.70;99.90;;;;;;5032059;28;20507;-71
2022/05/28 04:43:14;;;;;;;27.85;7.43;;;20.80;99.90;;;;;;5030524;28;20511;-71
2022/05/28 04:46:20;;;;;;;19.98;6.60;;;21.00;99.90;;;;;;5030547;28;20040;-71
2022/05/28 04:49:24;;;;;;;19.88;6.30;;;21.20;99.90;;;;;;5011564;28;20041;-71
2022/05/28 04:52:28;;;;;;;25.63;6.80;;;21.40;99.90;;;;;;5030224;28;20048;-70
2022/05/28 04:55:32;;;;;;;37.75;7.90;;;21.50;99.90;;;;;;5030294;28;20045;-71
2022/05/28 04:58:36;;;;;;;24.08;6.90;;;21.70;99.90;;;;;;5031250;28;20049;-71
2022/05/28 05:01:40;;;;;;;26.00;9.23;;;21.90;99.90;;;;;;5030746;28;20396;-71
2022/05/28 05:04:45;;;;;;;34.58;10.48;;;22.20;99.90;;;;;;5030141;28;20048;-71
2022/05/28 05:07:49;;;;;;;34.22;13.68;;;22.70;99.90;;;;;;5030646;28;20056;-71
2022/05/28 05:10:55;;;;;;;44.45;15.85;;;23.00;99.90;;;;;;5030194;28;20503;-71
2022/05/28 05:13:59;;;;;;;50.80;18.48;;;23.90;99.90;;;;;;5030355;28;20044;-71
2022/05/28 05:17:03;;;;;;;46.97;16.02;;;25.10;99.90;;;;;;5029930;28;20092;-71
2022/05/28 05:20:10;;;;;;;38.28;13.15;;;25.20;99.90;;;;;;5029940;28;20491;-71
2022/05/28 05:23:17;;;;;;;41.63;15.07;;;24.90;99.90;;;;;;5030110;28;20048;-71
2022/05/28 05:26:22;;;;;;;34.72;14.80;;;24.20;99.90;;;;;;5029310;28;20045;-71
2022/05/28 05:29:25;;;;;;;39.35;13.68;;;24.00;99.90;;;;;;5010541;28;20045;-71
2022/05/28 05:32:31;;;;;;;45.58;15.13;;;23.50;99.90;;;;;;5027178;28;20032;-71
2022/05/28 05:35:35;;;;;;;45.70;17.20;;;23.00;99.90;;;;;;5030130;28;20040;-71
2022/05/28 05:38:39;;;;;;;48.17;16.52;;;22.90;99.90;;;;;;5030478;28;20060;-71
2022/05/28 05:41:44;;;;;;;37.45;18.02;;;23.10;99.90;;;;;;5029802;28;20056;-71
2022/05/28 05:44:48;;;;;;;42.53;16.15;;;23.10;99.90;;;;;;5029240;28;20044;-71
2022/05/28 05:47:51;;;;;;;37.72;15.27;;;23.20;99.90;;;;;;5029487;28;20499;-71
2022/05/28 05:50:56;;;;;;;30.38;12.88;;;23.30;99.90;;;;;;5024716;28;20052;-71
2022/05/28 05:54:00;;;;;;;32.80;12.77;;;23.10;99.90;;;;;;5029501;28;20048;-71
2022/05/28 05:57:04;;;;;;;37.97;11.25;;;23.60;99.90;;;;;;5029829;28;20538;-71
2022/05/28 06:00:09;;;;;;;25.75;10.75;;;23.70;99.90;;;;;;5029740;28;20041;-71
2022/05/28 06:03:17;;;;;;;24.08;9.82;;;24.10;99.90;;;;;;5029492;28;20044;-71
2022/05/28 06:06:23;;;;;;;24.08;8.45;;;24.40;99.90;;;;;;5029402;28;20512;-71
2022/05/28 06:09:27;;;;;;;28.45;8.85;;;24.40;99.90;;;;;;5029980;28;20049;-71
2022/05/28 06:12:34;;;;;;;23.58;9.60;;;25.10;99.90;;;;;;5029207;28;20052;-71
2022/05/28 06:15:39;;;;;;;36.10;9.80;;;25.80;99.90;;;;;;5029864;28;20053;-71
2022/05/28 06:18:43;;;;;;;31.55;10.18;;;26.70;99.50;;;;;;5010236;28;20057;-72
2022/05/28 06:21:47;;;;;;;20.80;8.90;;;27.80;98.10;;;;;;5027061;28;20044;-72
2022/05/28 06:24:51;;;;;;;24.30;8.45;;;28.80;96.40;;;;;;5029523;28;20384;-72
2022/05/28 06:27:55;;;;;;;24.77;8.25;;;29.00;94.60;;;;;;5010190;28;20052;-71
2022/05/28 06:31:01;;;;;;;24.15;8.23;;;29.00;93.80;;;;;;5028903;28;20052;-72
2022/05/28 06:34:06;;;;;;;28.17;7.90;;;29.20;93.60;;;;;;5029455;28;20041;-72
2022/05/28 06:37:10;;;;;;;24.20;8.35;;;30.30;92.50;;;;;;5029366;28;20108;-72
2022/05/28 06:40:14;;;;;;;19.50;7.85;;;30.40;92.20;;;;;;5029520;28;20052;-72
2022/05/28 06:43:20;;;;;;;35.63;9.18;;;30.30;92.30;;;;;;5029017;28;20480;-72
2022/05/28 06:46:24;;;;;;;19.73;7.93;;;29.90;92.70;;;;;;5029323;28;20068;-72
2022/05/28 06:49:28;;;;;;;26.95;8.23;;;30.30;92.50;;;;;;5029448;28;20056;-72
2022/05/28 06:52:31;;;;;;;25.85;8.38;;;31.00;92.30;;;;;;5028662;28;20526;-72
2022/05/28 06:55:37;;;;;;;31.10;9.75;;;31.50;91.40;;;;;;5028274;28;20041;-70
2022/05/28 06:58:41;;;;;;;31.65;11.60;;;32.10;90.20;;;;;;5028880;28;20049;-70
2022/05/28 07:01:46;;;;;;;28.52;9.60;;;32.40;90.40;;;;;;5031590;28;20048;-70
2022/05/28 07:04:50;;;;;;;26.60;8.35;;;31.60;90.10;;;;;;5032775;28;20048;-71
2022/05/28 07:07:55;;;;;;;21.80;8.52;;;32.50;90.70;;;;;;5033107;28;20048;-71
2022/05/28 07:11:01;;;;;;;26.23;8.35;;;32.60;89.50;;;;;;5032272;28;20423;-71
2022/05/28 07:14:08;;;;;;;24.10;8.75;;;31.90;90.30;;;;;;5032785;28;20503;-70
2022/05/28 07:17:12;;;;;;;22.45;7.53;;;32.40;90.00;;;;;;5031647;28;20064;-71
2022/05/28 07:20:17;;;;;;;20.20;7.72;;;32.10;89.60;;;;;;5032337;28;20045;-72
2022/05/28 07:23:24;;;;;;;33.25;8.18;;;32.50;89.20;;;;;;5032342;28;20048;-72
2022/05/28 07:26:28;;;;;;;19.77;6.95;;;32.80;88.10;;;;;;5032248;28;20044;-71
2022/05/28 07:29:32;;;;;;;26.55;7.32;;;33.10;88.40;;;;;;5031744;28;20064;-71
2022/05/28 07:32:36;;;;;;;23.45;6.85;;;30.20;90.30;;;;;;5022476;28;20045;-72
2022/05/28 07:35:39;;;;;;;25.42;7.57;;;29.80;90.90;;;;;;5032612;28;20527;-70
2022/05/28 07:38:44;;;;;;;19.67;6.85;;;30.30;90.50;;;;;;5029899;28;20052;-73
2022/05/28 07:41:48;;;;;;;26.30;6.40;;;31.90;90.10;;;;;;5031724;28;20064;-71
2022/05/28 07:44:52;;;;;;;22.55;5.38;;;33.10;86.30;;;;;;5031930;28;20048;-70
2022/05/28 07:47:56;;;;;;;20.08;5.03;;;33.90;83.30;;;;;;5031220;28;20045;-71
2022/05/28 07:51:00;;;;;;;20.90;6.28;;;34.80;83.90;;;;;;5031436;28;20527;-71
2022/05/28 07:54:06;;;;;;;17.05;5.25;;;32.70;83.00;;;;;;5032171;28;20049;-71
2022/05/28 07:57:10;;;;;;;22.08;5.13;;;33.00;83.70;;;;;;5016785;28;20040;-71
2022/05/28 08:00:14;;;;;;;18.98;5.22;;;33.90;84.90;;;;;;5031438;28;20048;-71
2022/05/28 08:03:19;;;;;;;23.05;4.80;;;33.20;83.90;;;;;;5031572;28;20254;-71
2022/05/28 08:06:23;;;;;;;29.30;6.15;;;32.80;83.30;;;;;;5031635;28;20048;-72
2022/05/28 08:09:28;;;;;;;21.67;5.82;;;32.60;84.20;;;;;;5031152;28;20056;-71
2022/05/28 08:12:31;;;;;;;23.75;5.85;;;32.50;83.80;;;;;;5030106;28;20045;-72
2022/05/28 08:15:38;;;;;;;19.25;5.05;;;33.10;82.90;;;;;;5032037;28;20064;-73
2022/05/28 08:18:42;;;;;;;22.95;5.28;;;34.90;82.30;;;;;;5031250;28;20052;-72
2022/05/28 08:25:08;;;;;;;19.70;5.40;;;37.40;79.30;;;;;;5031512;28;20060;-73
2022/05/28 08:28:14;;;;;;;20.40;5.60;;;37.00;77.40;;;;;;5030017;28;20048;-73
2022/05/28 08:31:19;;;;;;;28.23;5.60;;;37.00;77.70;;;;;;5030878;28;20057;-72
2022/05/28 08:34:23;;;;;;;20.30;6.18;;;37.90;75.90;;;;;;5031253;28;20507;-72
2022/05/28 08:37:27;;;;;;;19.02;5.65;;;38.60;75.80;;;;;;5010739;28;20036;-72
2022/05/28 08:40:39;;;;;;;23.13;7.28;;;38.10;74.60;;;;;;5027399;28;20052;-71
2022/05/28 08:44:13;;;;;;;22.02;5.85;;;37.40;73.50;;;;;;5031000;28;20048;-72
2022/05/28 08:47:27;;;;;;;21.45;5.93;;;36.90;73.90;;;;;;5030769;28;20124;-70
2022/05/28 08:50:40;;;;;;;17.67;5.53;;;36.50;74.70;;;;;;5029144;28;20347;-70
2022/05/28 08:54:03;;;;;;;18.30;6.13;;;35.60;75.10;;;;;;5030411;28;20440;-70
2022/05/28 08:57:15;;;;;;;18.13;4.47;;;36.40;74.20;;;;;;5030875;28;20040;-70
2022/05/28 09:00:47;;;;;;;27.48;5.40;;;38.40;72.20;;;;;;5011974;28;20041;-70
2022/05/28 09:03:56;;;;;;;18.20;5.15;;;40.00;69.70;;;;;;5028348;28;20495;-71
2022/05/28 09:07:05;;;;;;;18.60;4.28;;;41.00;69.20;;;;;;5029963;28;20045;-71
2022/05/28 09:10:10;;;;;;;25.02;4.63;;;41.40;66.50;;;;;;5030614;28;20044;-72
2022/05/28 09:13:37;;;;;;;18.13;4.50;;;37.60;67.30;;;;;;5030498;28;20053;-71
2022/05/28 09:16:42;;;;;;;19.65;5.07;;;37.50;68.90;;;;;;5028764;28;20044;-70
2022/05/28 09:19:48;;;;;;;20.15;4.82;;;38.90;68.90;;;;;;5029652;28;20511;-70
2022/05/28 09:22:52;;;;;;;18.58;4.88;;;39.50;68.30;;;;;;5029111;28;20741;-72
2022/05/28 09:26:00;;;;;;;18.83;4.13;;;39.90;66.80;;;;;;5030073;28;20044;-72
2022/05/28 09:29:26;;;;;;;18.20;4.95;;;39.50;65.50;;;;;;5029844;28;20048;-72
2022/05/28 09:32:54;;;;;;;20.30;4.95;;;38.90;65.50;;;;;;5029796;28;20048;-72
2022/05/28 09:36:04;;;;;;;19.30;5.13;;;37.80;69.00;;;;;;5030426;28;20061;-71
2022/05/28 09:39:36;;;;;;;27.23;5.18;;;36.90;69.90;;;;;;5029674;28;20044;-70
2022/05/28 09:43:34;;;;;;;21.75;4.85;;;37.30;69.40;;;;;;5029538;28;20413;-70
2022/05/28 09:46:41;;;;;;;20.85;5.60;;;39.50;67.90;;;;;;5010305;28;20657;-72
2022/05/28 09:49:53;;;;;;;22.88;5.70;;;40.90;68.20;;;;;;5028338;28;20040;-71
2022/05/28 09:56:37;;;;;;;20.30;4.90;;;39.00;67.60;;;;;;5024540;28;20653;-71
2022/05/28 09:59:44;;;;;;;24.35;5.75;;;41.60;66.80;;;;;;5030211;28;20040;-71
2022/05/28 10:06:21;;;;;;;21.30;5.38;;;41.80;62.90;;;;;;5029830;28;20044;-71
2022/05/28 10:09:29;;;;;;;23.33;4.38;;;42.40;64.30;;;;;;5001940;28;20036;-71
2022/05/28 10:12:34;;;;;;;23.03;5.43;;;41.30;63.60;;;;;;5029259;28;20432;-71
2022/05/28 10:15:42;;;;;;;20.88;4.70;;;42.20;63.70;;;;;;5028136;28;20045;-71
2022/05/28 10:19:14;;;;;;;13.13;3.97;;;44.40;62.90;;;;;;5029098;28;20056;-71
2022/05/28 10:22:21;;;;;;;16.90;4.57;;;45.80;60.60;;;;;;5029082;28;20052;-71
2022/05/28 10:25:49;;;;;;;21.92;4.90;;;47.10;60.70;;;;;;5029036;28;20053;-72
2022/05/28 10:29:01;;;;;;;17.42;4.75;;;48.20;59.10;;;;;;5026517;28;20049;-72
2022/05/28 10:32:31;;;;;;;15.70;4.32;;;48.80;58.70;;;;;;5029079;28;20055;-71
2022/05/28 10:35:36;;;;;;;22.02;4.15;;;48.40;57.60;;;;;;5032444;28;20068;-71
2022/05/28 10:38:39;;;;;;;18.45;4.40;;;43.60;56.60;;;;;;5013674;28;20049;-71
2022/05/28 10:41:45;;;;;;;22.95;4.50;;;44.60;58.10;;;;;;5031523;28;20052;-70
2022/05/28 10:44:52;;;;;;;30.58;5.75;;;41.70;59.50;;;;;;5032552;28;20389;-71
2022/05/28 10:48:08;;;;;;;20.55;5.00;;;40.80;63.20;;;;;;5032905;28;20392;-70
2022/05/28 10:51:39;;;;;;;26.52;5.90;;;43.20;61.20;;;;;;5032027;28;20036;-71
2022/05/28 10:55:18;;;;;;;23.00;5.05;;;40.90;60.50;;;;;;5032833;28;20504;-71
2022/05/28 10:58:42;;;;;;;19.55;4.57;;;43.60;59.30;;;;;;5032457;28;20384;-71
2022/05/28 11:01:57;;;;;;;18.42;4.43;;;44.80;58.60;;;;;;5033703;28;20052;-72
2022/05/28 11:05:46;;;;;;;23.08;5.05;;;45.20;58.80;;;;;;5032975;28;20048;-72
2022/05/28 11:09:33;;;;;;;24.42;4.53;;;41.60;57.90;;;;;;5026719;28;20526;-70
2022/05/28 11:12:43;;;;;;;20.73;4.82;;;40.80;59.80;;;;;;5027512;28;20045;-70
2022/05/28 11:16:24;;;;;;;23.92;4.65;;;41.90;58.50;;;;;;5032410;28;20041;-71
2022/05/28 11:20:10;;;;;;;19.02;3.95;;;43.20;58.90;;;;;;5032785;28;20036;-70
2022/05/28 11:23:23;;;;;;;26.52;5.05;;;41.60;57.90;;;;;;5013248;28;20495;-71
2022/05/28 11:26:45;;;;;;;17.73;3.95;;;40.10;60.50;;;;;;5029904;28;20073;-70
2022/05/28 11:30:31;;;;;;;24.42;5.65;;;39.00;60.90;;;;;;5031936;28;20792;-70
2022/05/28 11:33:38;;;;;;;18.30;4.07;;;38.40;62.20;;;;;;5032375;28;20624;-71
2022/05/28 11:36:48;;;;;;;33.50;4.93;;;39.10;61.70;;;;;;5032080;28;20044;-71
2022/05/28 11:40:07;;;;;;;16.75;4.45;;;36.60;61.80;;;;;;5031535;28;20048;-70
2022/05/28 11:43:20;;;;;;;25.38;4.75;;;37.00;59.00;;;;;;5032252;28;20048;-70
2022/05/28 11:46:46;;;;;;;18.92;4.15;;;37.10;57.70;;;;;;5031844;28;20052;-70
2022/05/28 11:53:43;;;;;;;18.15;4.53;;;39.20;60.00;;;;;;5031698;28;20128;-71
2022/05/28 11:56:51;;;;;;;28.73;5.43;;;39.00;59.80;;;;;;5031699;28;20482;-70
2022/05/28 11:59:57;;;;;;;25.63;4.93;;;38.70;59.10;;;;;;5032379;28;20056;-70
2022/05/28 12:03:14;;;;;;;21.23;4.70;;;39.40;56.70;;;;;;5031843;28;20056;-69
2022/05/28 12:06:22;;;;;;;18.08;4.45;;;37.00;58.70;;;;;;5030670;28;20053;-69
2022/05/28 12:09:32;;;;;;;20.38;4.75;;;36.30;61.10;;;;;;5031677;28;20048;-70
2022/05/28 12:12:52;;;;;;;25.27;5.38;;;35.90;62.00;;;;;;5032066;28;20053;-70
2022/05/28 12:16:09;;;;;;;19.52;4.55;;;33.90;62.90;;;;;;5030998;28;20032;-69
2022/05/28 12:19:13;;;;;;;30.33;5.78;;;32.90;63.70;;;;;;5031069;28;20488;-70
2022/05/28 12:22:53;;;;;;;27.95;5.15;;;32.20;63.80;;;;;;5031727;28;20044;-70
2022/05/28 12:26:00;;;;;;;18.77;4.85;;;31.90;65.00;;;;;;5011896;28;20061;-71
2022/05/28 12:29:06;;;;;;;23.95;5.47;;;31.50;70.10;;;;;;5027056;28;20060;-70
2022/05/28 12:32:18;;;;;;;22.63;5.05;;;31.20;72.40;;;;;;5031126;28;20048;-70
2022/05/28 12:35:32;;;;;;;25.52;5.13;;;30.60;72.30;;;;;;5011809;28;20048;-69
2022/05/28 12:38:44;;;;;;;25.17;5.75;;;30.40;73.50;;;;;;5026522;28;20396;-70
2022/05/28 12:41:59;;;;;;;29.90;6.03;;;30.60;74.00;;;;;;5029903;28;20041;-70
2022/05/28 12:45:38;;;;;;;29.95;5.82;;;31.50;73.50;;;;;;5031170;28;20278;-70
2022/05/28 12:48:43;;;;;;;21.77;4.40;;;32.20;70.20;;;;;;5034068;28;20067;-70
2022/05/28 12:52:14;;;;;;;20.10;4.70;;;32.30;69.30;;;;;;5030582;28;20045;-70
2022/05/28 12:55:30;;;;;;;12.63;4.55;;;32.20;69.60;;;;;;5030435;28;20064;-69
2022/05/28 12:58:39;;;;;;;17.20;4.63;;;32.50;70.90;;;;;;5030169;28;20061;-69
2022/05/28 13:02:30;;;;;;;18.95;4.68;;;32.20;71.30;;;;;;5011223;28;20048;-69
2022/05/28 13:05:42;;;;;;;20.10;5.15;;;31.60;70.60;;;;;;5026486;28;20048;-70
2022/05/28 13:09:09;;;;;;;28.35;5.63;;;30.90;71.50;;;;;;5030367;28;20060;-69
2022/05/28 13:12:53;;;;;;;26.08;6.75;;;30.60;72.30;;;;;;5030403;28;20060;-71
2022/05/28 13:16:05;;;;;;;26.10;4.95;;;30.40;73.20;;;;;;5015766;28;20049;-69
2022/05/28 13:19:27;;;;;;;23.58;5.05;;;30.40;76.20;;;;;;5030318;28;20052;-70
2022/05/28 13:22:50;;;;;;;25.50;5.70;;;30.10;79.50;;;;;;5029405;28;20053;-69
2022/05/28 13:25:56;;;;;;;29.27;7.30;;;29.80;81.70;;;;;;5029935;28;20257;-69
2022/05/28 13:29:38;;;;;;;20.17;5.43;;;29.30;84.00;;;;;;5030253;28;20409;-70
2022/05/28 13:32:41;;;;;;;17.77;5.37;;;28.90;86.90;;;;;;5028362;28;20045;-72
2022/05/28 13:35:58;;;;;;;28.88;6.45;;;28.60;87.40;;;;;;5029607;28;20049;-70
2022/05/28 13:39:02;;;;;;;22.95;6.00;;;28.50;88.70;;;;;;5030016;28;20044;-72
2022/05/28 13:42:11;;;;;;;25.33;5.93;;;28.40;89.40;;;;;;5010565;28;20057;-72
2022/05/28 13:45:25;;;;;;;28.33;6.28;;;28.20;90.20;;;;;;5026532;28;20044;-72
2022/05/28 13:48:30;;;;;;;29.73;6.68;;;28.00;90.70;;;;;;5029691;28;20040;-70
2022/05/28 13:51:36;;;;;;;22.00;6.30;;;27.90;91.40;;;;;;5030273;28;20052;-70
2022/05/28 13:54:51;;;;;;;21.42;7.03;;;27.70;91.30;;;;;;5024396;28;20044;-70
2022/05/28 13:57:55;;;;;;;29.95;7.90;;;27.50;91.60;;;;;;5028063;28;20036;-69
2022/05/28 14:01:02;;;;;;;39.88;7.93;;;27.40;92.10;;;;;;5029994;28;20064;-71
2022/05/28 14:04:12;;;;;;;50.13;17.83;;;27.30;92.70;;;;;;5029898;28;20041;-70
2022/05/28 14:07:24;;;;;;;31.90;9.90;;;27.50;92.70;;;;;;5029114;28;20048;-71
2022/05/28 14:10:35;;;;;;;22.30;7.53;;;27.50;92.70;;;;;;5029729;28;20044;-71
2022/05/28 14:13:51;;;;;;;17.63;6.38;;;27.60;92.60;;;;;;5030473;28;20044;-71
2022/05/28 14:16:59;;;;;;;25.48;6.60;;;27.80;91.70;;;;;;5029215;28;20052;-70
2022/05/28 14:20:08;;;;;;;27.85;6.45;;;28.20;91.00;;;;;;5028775;28;20048;-70
2022/05/28 14:23:12;;;;;;;19.27;7.05;;;28.40;92.60;;;;;;5029636;28;20052;-70
2022/05/28 14:26:18;;;;;;;20.63;6.65;;;28.50;93.10;;;;;;5025660;28;20044;-70
2022/05/28 14:29:29;;;;;;;26.88;6.50;;;28.80;92.10;;;;;;5028860;28;20384;-70
2022/05/28 14:32:42;;;;;;;24.85;5.85;;;29.20;91.30;;;;;;5029386;28;20044;-71
2022/05/28 14:35:47;;;;;;;23.08;5.65;;;29.60;87.40;;;;;;5009600;28;20401;-72
2022/05/28 14:38:52;;;;;;;24.33;5.20;;;30.00;85.30;;;;;;5025375;28;20048;-70
2022/05/28 14:42:05;;;;;;;26.40;4.75;;;30.20;84.90;;;;;;5029359;28;20057;-72
2022/05/28 14:45:28;;;;;;;20.83;6.07;;;30.30;84.50;;;;;;5010120;28;20032;-72
2022/05/28 14:48:33;;;;;;;24.55;6.20;;;30.20;90.30;;;;;;5025221;28;20040;-72
2022/05/28 14:51:40;;;;;;;29.95;6.93;;;29.90;91.80;;;;;;5028819;28;20044;-72
2022/05/28 14:54:56;;;;;;;19.80;5.50;;;29.60;92.40;;;;;;5029549;28;20044;-70
2022/05/28 14:58:16;;;;;;;16.30;5.75;;;29.40;92.30;;;;;;5028577;28;20389;-70
2022/05/28 15:01:30;;;;;;;48.43;8.13;;;29.40;93.30;;;;;;5028933;28;20113;-70
2022/05/28 15:04:34;;;;;;;32.45;7.28;;;28.60;94.90;;;;;;5029264;28;20052;-72
2022/05/28 15:07:56;;;;;;;20.58;7.00;;;27.90;96.80;;;;;;5028951;28;20054;-69
2022/05/28 15:11:00;;;;;;;21.33;7.47;;;27.40;98.50;;;;;;5028704;28;20044;-69
2022/05/28 15:14:11;;;;;;;27.63;7.60;;;26.80;99.80;;;;;;5028402;28;20116;-70
2022/05/28 15:17:16;;;;;;;27.40;8.20;;;26.40;99.90;;;;;;5028493;28;20044;-70
2022/05/28 15:20:20;;;;;;;28.92;8.05;;;25.30;99.90;;;;;;5029014;28;20052;-69
2022/05/28 15:23:25;;;;;;;27.55;9.05;;;25.20;99.90;;;;;;5032454;28;20052;-70
2022/05/28 15:26:30;;;;;;;25.73;9.23;;;25.30;99.90;;;;;;5032989;28;20076;-70
2022/05/28 15:29:33;;;;;;;37.17;10.10;;;24.80;99.90;;;;;;5032330;28;20056;-71
2022/05/28 15:32:40;;;;;;;26.38;8.77;;;24.90;99.90;;;;;;5032078;28;20053;-71
2022/05/28 15:39:09;;;;;;;28.13;8.23;;;25.40;99.90;;;;;;5032753;28;20048;-70
2022/05/28 15:42:31;;;;;;;31.95;7.22;;;25.10;99.90;;;;;;5026320;28;20064;-71
2022/05/28 15:45:42;;;;;;;32.67;8.63;;;24.90;99.90;;;;;;5031793;28;20048;-69
2022/05/28 15:48:46;;;;;;;21.25;9.90;;;25.00;99.90;;;;;;5030818;28;20032;-71
2022/05/28 15:51:51;;;;;;;24.08;8.77;;;25.10;99.90;;;;;;5032376;28;20075;-70
2022/05/28 15:54:59;;;;;;;22.52;7.53;;;25.00;99.90;;;;;;5031078;28;20048;-71
2022/05/28 15:58:13;;;;;;;20.92;7.57;;;25.10;99.90;;;;;;5030991;28;20049;-71
2022/05/28 16:01:25;;;;;;;75.00;10.60;;;25.20;99.90;;;;;;5011912;28;20064;-68
2022/05/28 16:04:29;;;;;;;26.83;7.60;;;25.10;99.90;;;;;;5031987;28;20040;-69
2022/05/28 16:07:34;;;;;;;17.15;8.05;;;24.90;99.90;;;;;;5030758;28;20048;-69
2022/05/28 16:10:39;;;;;;;18.35;8.52;;;24.50;99.90;;;;;;5032080;28;20499;-69
2022/05/28 16:13:44;;;;;;;21.00;9.82;;;24.20;99.90;;;;;;5027812;28;20053;-70
2022/05/28 16:16:49;;;;;;;18.25;9.25;;;23.90;99.90;;;;;;5030683;28;20598;-70
2022/05/28 16:19:54;;;;;;;17.40;9.52;;;23.70;99.90;;;;;;5031791;28;20036;-69
2022/05/28 16:22:58;;;;;;;28.50;9.95;;;23.60;99.90;;;;;;5029894;28;20072;-70
2022/05/28 16:26:06;;;;;;;18.77;9.90;;;23.50;99.90;;;;;;5030930;28;20052;-70
2022/05/28 16:29:13;;;;;;;18.33;9.55;;;23.30;99.90;;;;;;5031483;28;20045;-69
2022/05/28 16:32:17;;;;;;;18.85;9.55;;;23.30;99.90;;;;;;5030280;28;20148;-68